Time;durP1;ratioP1;P1;durP2;ratioP2;P2;SDS_P1;SDS_P2;PMS_P1;PMS_P2;Temp;Humidity;BMP_temperature;BMP_pressure;BME280_temperature;BME280_humidity;BME280_pressure;Samples;Min_cycle;Max_cycle;Signal;HPM_P1;HPM_P2
2022/03/29 00:00:36;;;;;;;41.13;23.20;;;7.30;99.90;;;;;;4866463;29;20120;-85
2022/03/29 00:03:02;;;;;;;47.70;24.13;;;7.20;99.90;;;;;;4898326;29;20091;-84
2022/03/29 00:05:28;;;;;;;39.63;22.00;;;7.20;99.90;;;;;;4898590;29;20104;-84
2022/03/29 00:07:54;;;;;;;39.88;21.70;;;7.30;99.90;;;;;;4898495;29;20495;-84
2022/03/29 00:10:20;;;;;;;38.80;22.98;;;7.30;99.90;;;;;;4881895;29;20517;-84
2022/03/29 00:12:46;;;;;;;42.53;23.15;;;7.20;99.90;;;;;;4898405;29;20065;-84
2022/03/29 00:15:12;;;;;;;39.47;21.25;;;7.20;99.90;;;;;;4898410;29;20044;-84
2022/03/29 00:17:41;;;;;;;40.10;22.80;;;7.20;99.90;;;;;;4881407;29;20135;-84
2022/03/29 00:20:08;;;;;;;41.90;21.83;;;7.20;99.90;;;;;;4898451;29;20132;-84
2022/03/29 00:22:34;;;;;;;37.28;21.95;;;7.20;99.90;;;;;;4898208;29;20493;-83
2022/03/29 00:25:00;;;;;;;40.08;22.33;;;7.10;99.90;;;;;;4866353;29;20083;-84
2022/03/29 00:27:27;;;;;;;34.05;20.77;;;7.20;99.90;;;;;;4881626;29;20590;-84
2022/03/29 00:29:53;;;;;;;35.28;20.45;;;7.20;99.90;;;;;;4880765;29;20494;-84
2022/03/29 00:32:19;;;;;;;35.72;20.17;;;7.10;99.90;;;;;;4865808;29;20053;-84
2022/03/29 00:34:44;;;;;;;32.97;19.95;;;7.10;99.90;;;;;;4880551;29;20059;-84
2022/03/29 00:37:10;;;;;;;33.97;20.60;;;7.10;99.90;;;;;;4897819;29;20049;-84
2022/03/29 00:39:36;;;;;;;34.28;20.00;;;7.10;99.90;;;;;;4897953;29;20059;-84
2022/03/29 00:42:01;;;;;;;33.00;19.88;;;7.20;99.90;;;;;;4865706;29;20124;-84
2022/03/29 00:44:32;;;;;;;37.70;21.55;;;7.10;99.90;;;;;;4897918;29;20116;-84
2022/03/29 00:46:58;;;;;;;32.22;19.80;;;7.00;99.90;;;;;;4897641;29;20506;-84
2022/03/29 00:49:25;;;;;;;31.80;20.05;;;7.00;99.90;;;;;;4897621;29;20127;-84
2022/03/29 00:51:55;;;;;;;33.97;19.80;;;7.00;99.90;;;;;;4865878;29;20140;-84
2022/03/29 00:54:22;;;;;;;35.63;18.70;;;7.00;99.90;;;;;;4881238;29;20056;-84
2022/03/29 00:56:48;;;;;;;29.50;20.02;;;7.00;99.90;;;;;;4865581;29;20056;-84
2022/03/29 00:59:13;;;;;;;34.30;20.50;;;7.00;99.90;;;;;;4880864;29;20459;-84
2022/03/29 01:01:39;;;;;;;30.08;18.20;;;7.00;99.90;;;;;;4880588;29;20474;-84
2022/03/29 01:04:06;;;;;;;29.13;19.13;;;7.00;99.90;;;;;;4880453;29;20056;-84
2022/03/29 01:06:33;;;;;;;30.58;18.83;;;6.90;99.90;;;;;;4880840;29;20052;-84
2022/03/29 01:08:59;;;;;;;28.35;19.55;;;7.10;99.90;;;;;;4880762;29;20052;-84
2022/03/29 01:11:26;;;;;;;27.63;18.45;;;7.00;99.90;;;;;;4880775;29;20407;-84
2022/03/29 01:13:52;;;;;;;28.17;17.95;;;6.90;99.90;;;;;;4897374;29;20040;-84
2022/03/29 01:19:07;;;;;;;25.50;16.85;;;6.90;99.90;;;;;;4880710;29;20598;-83
2022/03/29 01:21:38;;;;;;;28.13;17.02;;;6.90;99.90;;;;;;4865755;29;20055;-85
2022/03/29 01:24:05;;;;;;;28.63;18.53;;;6.90;99.90;;;;;;4897294;29;20109;-84
2022/03/29 01:26:32;;;;;;;29.55;17.80;;;6.80;99.90;;;;;;4897119;29;20505;-84
2022/03/29 01:28:58;;;;;;;24.95;17.17;;;6.80;99.90;;;;;;4897425;29;20208;-84
2022/03/29 01:31:25;;;;;;;26.25;18.15;;;6.80;99.90;;;;;;4896985;29;20565;-84
2022/03/29 01:33:51;;;;;;;24.48;17.15;;;7.00;99.90;;;;;;4865438;29;20053;-84
2022/03/29 01:36:17;;;;;;;26.80;17.92;;;6.80;99.90;;;;;;4880552;29;20052;-84
2022/03/29 01:38:43;;;;;;;25.27;18.15;;;6.80;99.90;;;;;;4897011;29;20056;-84
2022/03/29 01:41:10;;;;;;;26.50;18.77;;;6.80;99.90;;;;;;4897263;29;20091;-84
2022/03/29 01:43:36;;;;;;;28.13;18.85;;;6.80;99.90;;;;;;4864849;29;20088;-84
2022/03/29 01:46:02;;;;;;;29.70;18.10;;;6.80;99.90;;;;;;4880278;29;20582;-84
2022/03/29 01:48:28;;;;;;;29.00;18.27;;;6.80;99.90;;;;;;4883504;29;20083;-84
2022/03/29 01:50:53;;;;;;;28.48;18.70;;;6.80;99.90;;;;;;4868901;29;20059;-84
2022/03/29 01:53:26;;;;;;;25.85;17.75;;;6.70;99.90;;;;;;4900926;29;20483;-84
2022/03/29 01:55:57;;;;;;;27.02;18.42;;;6.90;99.90;;;;;;4884091;29;20165;-84
2022/03/29 01:58:24;;;;;;;24.37;17.30;;;6.70;99.90;;;;;;4868514;29;20059;-84
2022/03/29 02:00:51;;;;;;;26.02;17.95;;;6.70;99.90;;;;;;4868502;29;20300;-84
2022/03/29 02:03:16;;;;;;;27.23;18.63;;;6.70;99.90;;;;;;4883681;29;20059;-84
2022/03/29 02:05:42;;;;;;;29.77;18.33;;;6.80;99.90;;;;;;4883984;29;20402;-84
2022/03/29 02:08:08;;;;;;;27.55;18.38;;;6.70;99.90;;;;;;4883887;29;20052;-85
2022/03/29 02:10:34;;;;;;;28.70;19.02;;;6.70;99.90;;;;;;4883632;29;20060;-84
2022/03/29 02:13:00;;;;;;;29.08;20.38;;;6.70;99.90;;;;;;4884031;29;20095;-84
2022/03/29 02:15:26;;;;;;;25.55;18.58;;;6.60;99.90;;;;;;4883570;29;20049;-84
2022/03/29 02:17:52;;;;;;;26.08;17.75;;;6.50;99.90;;;;;;4883817;29;20093;-84
2022/03/29 02:20:19;;;;;;;32.63;19.42;;;6.50;99.90;;;;;;4867911;29;20053;-83
2022/03/29 02:22:46;;;;;;;27.52;18.40;;;6.50;99.90;;;;;;4868018;29;20052;-84
2022/03/29 02:25:12;;;;;;;27.52;18.38;;;6.60;99.90;;;;;;4900350;29;20054;-84
2022/03/29 02:27:43;;;;;;;31.00;19.20;;;6.50;99.90;;;;;;4900082;29;20072;-83
2022/03/29 02:30:14;;;;;;;29.70;19.70;;;6.50;99.90;;;;;;4881786;29;20127;-84
2022/03/29 02:32:40;;;;;;;26.23;18.83;;;6.40;99.90;;;;;;4900300;29;20124;-85
2022/03/29 02:35:06;;;;;;;26.73;19.10;;;6.30;99.90;;;;;;4868065;29;20100;-84
2022/03/29 02:37:32;;;;;;;29.70;19.17;;;6.30;99.90;;;;;;4882903;29;20060;-84
2022/03/29 02:39:58;;;;;;;31.35;19.98;;;6.30;99.90;;;;;;4867768;29;20060;-84
2022/03/29 02:42:24;;;;;;;32.05;20.13;;;6.30;99.90;;;;;;4882959;29;20526;-84
2022/03/29 02:44:49;;;;;;;27.40;19.42;;;6.40;99.90;;;;;;4867598;29;20044;-84
2022/03/29 02:47:15;;;;;;;31.25;18.92;;;6.40;99.90;;;;;;4867870;29;20075;-83
2022/03/29 02:49:40;;;;;;;30.50;20.42;;;6.40;99.90;;;;;;4883594;29;20044;-84
2022/03/29 02:52:07;;;;;;;31.23;20.23;;;6.40;99.90;;;;;;4883099;29;20052;-84
2022/03/29 02:54:32;;;;;;;30.00;20.58;;;6.50;99.90;;;;;;4882944;29;20051;-84
2022/03/29 02:56:58;;;;;;;32.40;19.92;;;6.50;99.90;;;;;;4883167;29;20058;-84
2022/03/29 02:59:24;;;;;;;30.33;20.52;;;6.40;99.90;;;;;;4882496;29;20055;-84
2022/03/29 03:01:50;;;;;;;30.00;20.45;;;6.40;99.90;;;;;;4883132;29;20063;-84
2022/03/29 03:04:16;;;;;;;29.55;20.60;;;6.40;99.90;;;;;;4882924;29;20053;-84
2022/03/29 03:06:42;;;;;;;28.65;20.17;;;6.40;99.90;;;;;;4883012;29;20048;-84
2022/03/29 03:09:08;;;;;;;33.00;19.95;;;6.40;99.90;;;;;;4882623;29;20056;-84
2022/03/29 03:11:37;;;;;;;33.17;21.17;;;6.40;99.90;;;;;;4882744;29;20084;-84
2022/03/29 03:14:03;;;;;;;40.58;22.00;;;6.40;99.90;;;;;;4882542;29;20055;-84
2022/03/29 03:16:28;;;;;;;30.25;20.75;;;6.40;99.90;;;;;;4899297;29;20128;-84
2022/03/29 03:18:55;;;;;;;36.25;23.80;;;6.40;99.90;;;;;;4899476;29;20521;-84
2022/03/29 03:21:20;;;;;;;42.60;26.38;;;6.40;99.90;;;;;;4882057;29;20060;-84
2022/03/29 03:23:46;;;;;;;48.20;28.92;;;6.40;99.90;;;;;;4899114;29;20514;-84
2022/03/29 03:26:12;;;;;;;48.22;27.88;;;6.30;99.90;;;;;;4867350;29;20131;-83
2022/03/29 03:28:37;;;;;;;44.65;27.30;;;6.30;99.90;;;;;;4898923;29;20140;-85
2022/03/29 03:31:03;;;;;;;39.53;24.65;;;6.30;99.90;;;;;;4899063;29;20056;-84
2022/03/29 03:33:29;;;;;;;41.63;24.70;;;6.30;99.90;;;;;;4866519;29;20120;-84
2022/03/29 03:35:55;;;;;;;37.55;23.45;;;6.20;99.90;;;;;;4882464;29;20059;-83
2022/03/29 03:38:20;;;;;;;38.25;24.33;;;6.30;99.90;;;;;;4899244;29;20053;-84
2022/03/29 03:40:46;;;;;;;42.13;25.63;;;6.30;99.90;;;;;;4882529;29;20052;-84
2022/03/29 03:43:12;;;;;;;40.42;23.98;;;6.30;99.90;;;;;;4882156;29;20131;-84
2022/03/29 03:45:37;;;;;;;38.15;23.92;;;6.30;99.90;;;;;;4881710;29;20189;-84
2022/03/29 03:48:04;;;;;;;39.75;24.63;;;6.30;99.90;;;;;;4881864;29;20060;-84
2022/03/29 03:50:30;;;;;;;38.03;23.75;;;6.30;99.90;;;;;;4866812;29;20053;-84
2022/03/29 03:52:56;;;;;;;36.40;22.70;;;6.40;99.90;;;;;;4898702;29;20139;-84
2022/03/29 03:55:22;;;;;;;32.58;21.17;;;6.30;99.90;;;;;;4898735;29;20048;-84
2022/03/29 03:57:49;;;;;;;32.63;21.40;;;6.30;99.90;;;;;;4866588;29;20444;-84
2022/03/29 04:00:15;;;;;;;33.42;21.75;;;6.30;99.90;;;;;;4882001;29;20040;-84
2022/03/29 04:02:41;;;;;;;36.55;22.83;;;6.30;99.90;;;;;;4866451;29;20056;-84
2022/03/29 04:05:08;;;;;;;31.85;20.23;;;6.40;99.90;;;;;;4882054;29;20398;-84
2022/03/29 04:07:34;;;;;;;33.63;21.25;;;6.40;99.90;;;;;;4898649;29;20489;-84
2022/03/29 04:10:00;;;;;;;30.63;20.20;;;6.40;99.90;;;;;;4881264;29;20045;-83
2022/03/29 04:12:27;;;;;;;32.08;20.38;;;6.40;99.90;;;;;;4865463;29;20148;-84
2022/03/29 04:14:54;;;;;;;37.65;21.50;;;6.40;99.90;;;;;;4865926;29;20120;-84
2022/03/29 04:17:19;;;;;;;33.28;19.83;;;6.40;99.90;;;;;;4881391;29;20064;-83
2022/03/29 04:19:45;;;;;;;35.40;21.42;;;6.60;99.90;;;;;;4866484;29;20510;-84
2022/03/29 04:22:11;;;;;;;30.30;21.17;;;6.40;99.90;;;;;;4898268;29;20059;-84
2022/03/29 04:24:37;;;;;;;29.73;19.73;;;6.40;99.90;;;;;;4881322;29;20056;-84
2022/03/29 04:47:50;;;;;;;35.85;20.75;;;6.30;99.90;;;;;;4894697;29;20051;-84
2022/03/29 04:50:17;;;;;;;37.28;21.35;;;6.40;99.90;;;;;;4897419;29;20053;-84
2022/03/29 04:52:46;;;;;;;38.63;22.20;;;6.40;99.90;;;;;;4880437;29;20048;-84
2022/03/29 04:55:14;;;;;;;34.40;21.08;;;6.40;99.90;;;;;;4880278;29;20499;-84
2022/03/29 04:57:41;;;;;;;35.40;20.67;;;6.40;99.90;;;;;;4896895;29;20052;-84
2022/03/29 05:00:12;;;;;;;37.80;21.63;;;6.40;99.90;;;;;;4880682;29;20422;-83
2022/03/29 05:02:43;;;;;;;35.67;21.90;;;6.40;99.90;;;;;;4897195;29;20539;-84
2022/03/29 05:05:10;;;;;;;37.08;22.65;;;6.40;99.90;;;;;;4880899;29;20132;-84
2022/03/29 05:07:45;;;;;;;32.95;21.08;;;6.40;99.90;;;;;;4879876;29;20056;-84
2022/03/29 05:10:12;;;;;;;37.75;21.48;;;6.40;99.90;;;;;;4878230;29;20056;-84
2022/03/29 05:12:38;;;;;;;36.58;21.35;;;6.40;99.90;;;;;;4880891;29;20056;-83
2022/03/29 05:15:05;;;;;;;38.13;22.02;;;6.40;99.90;;;;;;4897049;29;20048;-84
2022/03/29 05:17:33;;;;;;;34.47;21.95;;;6.40;99.90;;;;;;4895574;29;20052;-84
2022/03/29 05:19:59;;;;;;;35.58;21.88;;;6.40;99.90;;;;;;4895085;29;20422;-84
2022/03/29 05:22:25;;;;;;;35.35;22.00;;;6.40;99.90;;;;;;4873583;29;20046;-84
2022/03/29 05:24:50;;;;;;;39.22;23.58;;;6.40;99.90;;;;;;4862446;29;20064;-83
2022/03/29 05:27:16;;;;;;;37.17;21.42;;;6.50;99.90;;;;;;4862922;29;20059;-85
2022/03/29 05:29:41;;;;;;;35.67;23.40;;;6.40;99.90;;;;;;4878613;29;20096;-84
2022/03/29 05:32:07;;;;;;;37.95;22.60;;;6.40;99.90;;;;;;4862397;29;20096;-84
2022/03/29 05:34:33;;;;;;;37.40;22.77;;;6.40;99.90;;;;;;4896254;29;20053;-84
2022/03/29 05:36:59;;;;;;;40.50;23.77;;;6.70;99.90;;;;;;4880392;29;20135;-84
2022/03/29 05:39:25;;;;;;;41.42;22.48;;;6.40;99.90;;;;;;4896956;29;20439;-83
2022/03/29 05:41:50;;;;;;;38.25;22.13;;;6.40;99.90;;;;;;4865208;29;20610;-84
2022/03/29 05:44:16;;;;;;;41.55;24.05;;;6.50;99.90;;;;;;4880081;29;20514;-84
2022/03/29 05:49:27;;;;;;;40.20;23.10;;;6.60;99.90;;;;;;4880228;29;20124;-84
2022/03/29 05:51:53;;;;;;;35.33;21.73;;;6.60;99.90;;;;;;4864182;29;20095;-83
2022/03/29 05:54:19;;;;;;;41.05;23.02;;;6.60;99.90;;;;;;4897198;29;20059;-84
2022/03/29 05:56:45;;;;;;;43.58;24.25;;;6.70;99.90;;;;;;4864731;29;20518;-85
2022/03/29 05:59:10;;;;;;;41.65;23.30;;;6.70;99.90;;;;;;4880561;29;20055;-84
2022/03/29 06:01:38;;;;;;;36.78;22.10;;;6.70;99.90;;;;;;4880590;29;20132;-84
2022/03/29 06:04:06;;;;;;;39.40;22.90;;;6.90;99.90;;;;;;4880141;29;20041;-84
2022/03/29 06:06:36;;;;;;;34.08;21.15;;;6.70;99.90;;;;;;4896834;29;20049;-84
2022/03/29 06:09:03;;;;;;;38.15;23.50;;;6.80;99.90;;;;;;4865061;29;20158;-83
2022/03/29 06:11:29;;;;;;;38.15;22.40;;;6.80;99.90;;;;;;4897173;29;20407;-84
2022/03/29 06:13:55;;;;;;;36.88;23.98;;;6.80;99.90;;;;;;4896944;29;20051;-83
2022/03/29 06:16:20;;;;;;;39.22;22.67;;;6.90;99.90;;;;;;4880318;29;20048;-84
2022/03/29 06:18:46;;;;;;;39.60;22.50;;;6.90;99.90;;;;;;4879743;29;20064;-84
2022/03/29 06:21:12;;;;;;;39.17;23.70;;;7.10;99.90;;;;;;4879378;29;20053;-84
2022/03/29 06:23:38;;;;;;;36.38;22.95;;;6.90;99.90;;;;;;4879741;29;20045;-84
2022/03/29 06:26:08;;;;;;;37.75;23.90;;;7.00;99.90;;;;;;4897010;29;20053;-84
2022/03/29 06:28:34;;;;;;;38.15;23.15;;;7.10;99.90;;;;;;4895478;29;20060;-84
2022/03/29 06:30:59;;;;;;;41.70;22.83;;;7.10;99.90;;;;;;4896903;29;20052;-83
2022/03/29 06:33:26;;;;;;;40.88;23.15;;;7.10;99.90;;;;;;4898179;29;20558;-84
2022/03/29 06:35:52;;;;;;;42.58;23.98;;;7.20;99.90;;;;;;4883499;29;20418;-84
2022/03/29 06:38:21;;;;;;;38.47;22.58;;;7.30;99.90;;;;;;4900400;29;20059;-84
2022/03/29 06:40:48;;;;;;;46.88;24.40;;;7.30;99.90;;;;;;4900195;29;20127;-84
2022/03/29 06:43:14;;;;;;;42.63;23.52;;;7.30;99.90;;;;;;4883433;29;20059;-84
2022/03/29 06:45:40;;;;;;;42.72;23.35;;;7.40;99.90;;;;;;4883331;29;20057;-84
2022/03/29 06:48:07;;;;;;;39.28;23.45;;;7.40;99.90;;;;;;4867796;29;20055;-84
2022/03/29 06:50:35;;;;;;;42.25;22.00;;;7.40;99.90;;;;;;4883076;29;20061;-84
2022/03/29 06:53:01;;;;;;;35.85;21.65;;;7.40;99.90;;;;;;4899697;29;20529;-84
2022/03/29 06:55:27;;;;;;;43.30;23.02;;;7.60;99.90;;;;;;4883290;29;20052;-84
2022/03/29 06:57:54;;;;;;;41.05;23.02;;;7.50;99.90;;;;;;4882975;29;20056;-84
2022/03/29 07:00:20;;;;;;;37.78;21.88;;;7.50;99.90;;;;;;4883226;29;20048;-84
2022/03/29 07:02:47;;;;;;;35.95;22.08;;;7.50;99.90;;;;;;4882833;29;20126;-83
2022/03/29 07:05:14;;;;;;;38.60;22.98;;;7.60;99.90;;;;;;4899730;29;20411;-84
2022/03/29 07:07:41;;;;;;;42.83;22.65;;;7.60;99.90;;;;;;4882846;29;20057;-83
2022/03/29 07:12:54;;;;;;;38.88;23.05;;;7.70;99.90;;;;;;4899480;29;20407;-84
2022/03/29 07:15:22;;;;;;;38.63;22.17;;;7.70;99.90;;;;;;4899496;29;20044;-84
2022/03/29 07:17:48;;;;;;;37.72;22.35;;;7.90;99.90;;;;;;4899337;29;20499;-84
2022/03/29 07:20:19;;;;;;;40.75;22.50;;;7.90;99.90;;;;;;4882047;29;20251;-84
2022/03/29 07:22:46;;;;;;;36.05;22.55;;;8.00;99.90;;;;;;4866954;29;20155;-84
2022/03/29 07:25:12;;;;;;;39.85;22.60;;;8.10;99.90;;;;;;4883077;29;20094;-84
2022/03/29 07:27:38;;;;;;;36.70;21.50;;;8.20;99.90;;;;;;4882717;29;20060;-85
2022/03/29 07:30:05;;;;;;;40.88;22.67;;;8.20;99.90;;;;;;4899083;29;20049;-84
2022/03/29 07:32:32;;;;;;;43.90;23.88;;;8.20;99.90;;;;;;4867087;29;20067;-84
2022/03/29 07:34:59;;;;;;;38.30;22.92;;;8.20;99.90;;;;;;4899347;29;20040;-84
2022/03/29 07:37:25;;;;;;;45.70;25.23;;;8.20;99.90;;;;;;4882173;29;20048;-84
2022/03/29 07:39:53;;;;;;;43.75;26.05;;;8.20;99.90;;;;;;4882420;29;20116;-84
2022/03/29 07:42:22;;;;;;;48.25;27.80;;;8.50;99.90;;;;;;4899078;29;20136;-84
2022/03/29 07:44:50;;;;;;;50.30;27.27;;;8.40;99.90;;;;;;4881428;29;20088;-84
2022/03/29 07:47:18;;;;;;;52.80;28.55;;;8.60;99.90;;;;;;4882182;29;20052;-84
2022/03/29 07:49:44;;;;;;;57.03;29.75;;;8.70;99.90;;;;;;4898657;29;20060;-84
2022/03/29 07:52:10;;;;;;;48.28;27.85;;;8.90;99.90;;;;;;4898725;29;20139;-84
2022/03/29 07:54:35;;;;;;;46.85;26.98;;;9.10;99.90;;;;;;4898822;29;20132;-84
2022/03/29 07:57:01;;;;;;;45.10;26.52;;;9.10;99.90;;;;;;4881947;29;20056;-84
2022/03/29 07:59:27;;;;;;;46.08;25.00;;;9.20;99.90;;;;;;4898672;29;20048;-84
2022/03/29 08:01:54;;;;;;;41.33;24.45;;;9.40;99.90;;;;;;4898725;29;20183;-84
2022/03/29 08:04:21;;;;;;;40.78;23.15;;;9.60;99.90;;;;;;4881534;29;20414;-84
2022/03/29 08:06:46;;;;;;;38.47;24.52;;;9.90;99.90;;;;;;4882011;29;20048;-85
2022/03/29 08:09:14;;;;;;;39.53;24.13;;;9.90;99.90;;;;;;4882182;29;20064;-84
2022/03/29 08:11:40;;;;;;;41.55;24.17;;;10.00;99.90;;;;;;4898345;29;20535;-84
2022/03/29 08:14:06;;;;;;;43.13;23.25;;;10.10;99.90;;;;;;4881606;29;20120;-84
2022/03/29 08:16:33;;;;;;;40.17;24.30;;;10.10;99.90;;;;;;4866077;29;20103;-84
2022/03/29 08:19:00;;;;;;;41.78;24.75;;;10.40;99.90;;;;;;4865701;29;20058;-84
2022/03/29 08:24:10;;;;;;;38.30;23.52;;;10.40;99.90;;;;;;4881414;29;20055;-84
2022/03/29 08:26:36;;;;;;;44.05;24.85;;;10.60;99.90;;;;;;4881287;29;20056;-85
2022/03/29 08:29:02;;;;;;;41.63;24.27;;;10.60;99.90;;;;;;4881475;29;20056;-84
2022/03/29 08:31:27;;;;;;;42.35;23.60;;;10.70;99.90;;;;;;4881273;29;20073;-84
2022/03/29 08:33:53;;;;;;;37.28;23.92;;;10.80;99.90;;;;;;4881007;29;20056;-83
2022/03/29 08:36:19;;;;;;;41.10;22.77;;;10.90;99.90;;;;;;4898055;29;20187;-84
2022/03/29 08:38:44;;;;;;;37.20;23.10;;;11.00;99.90;;;;;;4898053;29;20055;-86
2022/03/29 08:41:10;;;;;;;44.78;23.83;;;10.90;99.90;;;;;;4898038;29;20084;-85
2022/03/29 08:43:35;;;;;;;40.80;24.92;;;10.90;99.90;;;;;;4897872;29;20052;-84
2022/03/29 08:46:01;;;;;;;38.60;23.52;;;11.00;99.90;;;;;;4897940;29;20380;-85
2022/03/29 08:48:29;;;;;;;39.85;23.88;;;11.20;99.90;;;;;;4865299;29;20495;-84
2022/03/29 08:50:57;;;;;;;38.75;24.92;;;11.20;99.90;;;;;;4881399;29;20048;-84
2022/03/29 08:53:23;;;;;;;51.05;25.17;;;11.20;99.90;;;;;;4881039;29;20487;-84
2022/03/29 08:55:50;;;;;;;39.88;24.10;;;11.20;99.90;;;;;;4897439;29;20056;-84
2022/03/29 08:58:17;;;;;;;37.20;22.05;;;11.20;99.90;;;;;;4897627;29;20053;-85
2022/03/29 09:00:45;;;;;;;41.03;23.30;;;11.40;99.90;;;;;;4881063;29;20191;-84
2022/03/29 09:03:14;;;;;;;39.08;21.92;;;11.40;99.90;;;;;;4880679;29;20185;-84
2022/03/29 09:05:39;;;;;;;37.75;22.45;;;11.60;99.90;;;;;;4865372;29;20519;-84
2022/03/29 09:08:09;;;;;;;39.60;22.08;;;11.60;99.90;;;;;;4865685;29;20127;-84
2022/03/29 09:10:39;;;;;;;37.00;21.55;;;12.20;99.90;;;;;;4865422;29;20056;-84
2022/03/29 09:13:23;;;;;;;41.30;22.05;;;13.10;99.90;;;;;;4880332;29;20057;-84
2022/03/29 09:15:55;;;;;;;37.00;21.38;;;13.60;99.90;;;;;;4880660;29;20075;-84
2022/03/29 09:18:22;;;;;;;34.95;21.55;;;14.00;99.90;;;;;;4880878;29;20529;-84
2022/03/29 09:21:11;;;;;;;36.72;22.17;;;14.10;99.90;;;;;;4880696;29;20059;-83
2022/03/29 09:23:37;;;;;;;35.72;23.00;;;14.20;99.90;;;;;;4865049;29;20088;-84
2022/03/29 09:26:04;;;;;;;39.53;23.13;;;14.00;99.90;;;;;;4880863;29;20131;-84
2022/03/29 09:28:38;;;;;;;36.97;22.40;;;13.70;99.90;;;;;;4880858;29;20089;-84
2022/03/29 09:31:18;;;;;;;38.97;22.50;;;13.50;99.90;;;;;;4865627;29;20044;-84
2022/03/29 09:33:44;;;;;;;36.95;22.45;;;13.30;99.90;;;;;;4897157;29;20483;-85
2022/03/29 09:36:12;;;;;;;35.72;22.70;;;13.30;99.90;;;;;;4897482;29;20060;-84
2022/03/29 09:38:44;;;;;;;37.95;22.98;;;13.30;99.90;;;;;;4880799;29;20498;-85
2022/03/29 09:41:22;;;;;;;39.25;22.60;;;13.30;99.90;;;;;;4881040;29;20056;-85
2022/03/29 09:44:11;;;;;;;36.33;23.60;;;13.50;99.90;;;;;;4880797;29;20052;-85
2022/03/29 09:47:02;;;;;;;38.47;23.33;;;13.80;99.90;;;;;;4897485;29;20069;-84
2022/03/29 09:49:29;;;;;;;37.25;21.77;;;14.50;99.90;;;;;;4880892;29;20448;-85
2022/03/29 09:52:09;;;;;;;42.22;21.63;;;15.50;99.90;;;;;;4880358;29;20562;-85
2022/03/29 09:54:36;;;;;;;33.40;21.17;;;16.80;91.70;;;;;;4897230;29;20362;-85
2022/03/29 09:57:04;;;;;;;33.80;20.27;;;16.80;91.10;;;;;;4865116;29;20049;-85
2022/03/29 09:59:32;;;;;;;33.22;19.15;;;16.80;92.80;;;;;;4880749;29;20550;-85
2022/03/29 10:01:58;;;;;;;36.60;20.30;;;16.80;91.00;;;;;;4880374;29;20525;-85
2022/03/29 10:04:25;;;;;;;32.53;19.85;;;17.40;85.60;;;;;;4897341;29;20461;-85
2022/03/29 10:06:54;;;;;;;33.28;19.63;;;17.40;79.90;;;;;;4864879;29;20103;-85
2022/03/29 10:09:28;;;;;;;31.83;19.92;;;17.30;81.30;;;;;;4883276;29;20517;-85
2022/03/29 10:12:08;;;;;;;31.20;19.55;;;17.50;81.70;;;;;;4884164;29;20123;-85
2022/03/29 10:14:40;;;;;;;31.65;19.98;;;17.80;80.90;;;;;;4883822;29;20056;-85
2022/03/29 10:17:07;;;;;;;30.75;20.83;;;18.80;69.60;;;;;;4900598;29;20044;-85
2022/03/29 10:19:37;;;;;;;37.28;21.23;;;18.80;68.70;;;;;;4884003;29;20056;-85
2022/03/29 10:22:04;;;;;;;33.53;21.20;;;18.30;69.40;;;;;;4883867;29;20175;-85
2022/03/29 10:24:30;;;;;;;33.22;20.98;;;17.70;74.60;;;;;;4867773;29;20045;-85
2022/03/29 10:26:59;;;;;;;34.95;19.45;;;17.40;77.60;;;;;;4867953;29;20063;-86
2022/03/29 10:29:26;;;;;;;39.25;20.30;;;17.90;72.60;;;;;;4883682;29;20051;-85
2022/03/29 10:31:54;;;;;;;35.53;20.23;;;17.90;71.00;;;;;;4883613;29;20578;-85
2022/03/29 10:34:19;;;;;;;30.35;19.58;;;18.00;69.70;;;;;;4883663;29;20052;-85
2022/03/29 10:37:11;;;;;;;37.17;20.70;;;17.70;71.80;;;;;;4883421;29;20072;-86
2022/03/29 10:39:59;;;;;;;32.75;19.27;;;17.50;72.60;;;;;;4867725;29;20053;-86
2022/03/29 10:42:32;;;;;;;30.42;18.40;;;18.20;67.90;;;;;;4899985;29;20048;-86
2022/03/29 10:45:21;;;;;;;33.05;18.60;;;18.20;67.90;;;;;;4883578;29;20088;-86
2022/03/29 10:47:59;;;;;;;32.17;18.55;;;18.90;63.40;;;;;;4898868;29;20052;-86
2022/03/29 10:50:47;;;;;;;28.38;17.85;;;18.70;60.70;;;;;;4882018;29;20068;-86
2022/03/29 10:53:34;;;;;;;30.85;18.20;;;18.40;61.00;;;;;;4867884;29;20419;-85
2022/03/29 10:56:15;;;;;;;33.97;16.63;;;18.10;65.40;;;;;;4867816;29;20052;-86
2022/03/29 10:58:59;;;;;;;;;;;18.70;65.80;;;;;;4899792;29;20109;-85
2022/03/29 11:01:25;;;;;;;28.90;16.80;;;19.60;58.10;;;;;;4883196;29;19930;-86
2022/03/29 11:04:16;;;;;;;29.70;16.05;;;20.20;60.70;;;;;;4867504;29;20049;-86
2022/03/29 11:07:20;;;;;;;32.47;16.83;;;21.10;58.60;;;;;;4808201;29;20150;-86
2022/03/29 11:09:46;;;;;;;32.00;16.38;;;21.50;53.70;;;;;;4772588;30;20055;-86
2022/03/29 11:12:41;;;;;;;32.58;16.65;;;21.50;53.90;;;;;;4787319;30;20074;-86
2022/03/29 11:15:24;;;;;;;27.02;16.05;;;21.70;51.60;;;;;;4787278;30;20102;-86
2022/03/29 11:17:55;;;;;;;29.77;16.10;;;21.90;52.60;;;;;;4772379;30;20059;-86
2022/03/29 11:20:56;;;;;;;31.77;16.40;;;22.30;51.30;;;;;;4786771;29;20102;-86
2022/03/29 11:23:45;;;;;;;27.42;15.48;;;22.60;50.80;;;;;;4772066;30;20055;-86
2022/03/29 11:26:15;;;;;;;33.35;17.30;;;23.00;48.40;;;;;;4772447;30;20139;-87
2022/03/29 11:28:49;;;;;;;29.00;16.63;;;23.20;47.80;;;;;;4786984;30;20059;-85
2022/03/29 11:31:19;;;;;;;31.10;17.70;;;22.90;47.90;;;;;;4771841;30;20067;-86
2022/03/29 11:33:49;;;;;;;31.67;16.38;;;22.50;48.60;;;;;;4772291;30;20062;-86
2022/03/29 11:36:15;;;;;;;31.73;16.67;;;22.10;49.60;;;;;;4771388;30;20116;-87
2022/03/29 11:38:41;;;;;;;31.63;17.30;;;22.50;49.70;;;;;;4772024;30;20059;-86
2022/03/29 11:41:23;;;;;;;27.63;16.90;;;23.00;48.50;;;;;;4803325;29;20058;-87
2022/03/29 11:43:54;;;;;;;31.02;17.63;;;23.50;47.60;;;;;;4833833;29;20063;-87
2022/03/29 11:46:19;;;;;;;;;;;24.00;46.00;;;;;;4899134;29;20399;-86
2022/03/29 11:48:50;;;;;;;28.45;16.58;;;24.50;45.00;;;;;;4882231;29;19931;-86
2022/03/29 11:51:16;;;;;;;27.02;18.15;;;24.40;46.50;;;;;;4882079;29;20132;-86
2022/03/29 11:53:43;;;;;;;31.35;18.35;;;24.60;45.90;;;;;;4898900;29;20087;-87
2022/03/29 11:56:11;;;;;;;28.77;17.20;;;24.70;44.20;;;;;;4882372;29;20092;-87
2022/03/29 11:58:38;;;;;;;28.35;16.75;;;24.70;44.10;;;;;;4881798;29;20052;-86
2022/03/29 12:01:07;;;;;;;28.75;16.83;;;24.90;44.00;;;;;;4882192;29;20518;-86
2022/03/29 12:03:46;;;;;;;28.73;17.10;;;24.70;42.30;;;;;;4898439;29;20044;-87
2022/03/29 12:06:26;;;;;;;27.50;17.05;;;24.30;42.50;;;;;;4881934;29;20052;-87
2022/03/29 12:09:00;;;;;;;34.63;16.95;;;24.30;43.20;;;;;;4882084;29;20052;-87
2022/03/29 12:11:30;;;;;;;30.25;17.17;;;24.70;42.80;;;;;;4881914;29;20053;-87
2022/03/29 12:14:07;;;;;;;26.50;16.75;;;25.20;42.50;;;;;;4881521;29;20146;-88
2022/03/29 12:16:39;;;;;;;25.30;16.30;;;25.40;41.70;;;;;;4898238;29;20058;-87
2022/03/29 12:19:19;;;;;;;31.70;17.73;;;25.60;41.60;;;;;;4898364;29;20044;-87
2022/03/29 12:21:51;;;;;;;30.88;17.33;;;25.40;40.70;;;;;;4866215;29;20061;-87
2022/03/29 12:24:18;;;;;;;25.15;17.23;;;25.30;41.30;;;;;;4866060;29;20045;-88
2022/03/29 12:26:47;;;;;;;26.60;17.58;;;25.40;40.70;;;;;;4881336;29;20056;-87
2022/03/29 12:29:16;;;;;;;23.50;15.68;;;25.50;41.40;;;;;;4898595;29;20088;-87
2022/03/29 12:31:42;;;;;;;22.83;16.60;;;25.80;41.20;;;;;;4865586;29;20056;-87
2022/03/29 12:34:09;;;;;;;31.02;16.42;;;25.90;40.20;;;;;;4881556;29;20059;-87
2022/03/29 12:36:49;;;;;;;27.15;16.10;;;25.90;40.00;;;;;;4881171;29;20103;-87
2022/03/29 12:39:14;;;;;;;28.67;16.80;;;25.60;39.50;;;;;;4865828;29;20048;-88
2022/03/29 12:41:48;;;;;;;24.23;15.85;;;25.30;39.90;;;;;;4881612;29;20127;-87
2022/03/29 12:44:43;;;;;;;25.77;16.10;;;25.10;40.70;;;;;;4881265;29;20052;-87
2022/03/29 12:47:09;;;;;;;28.52;16.08;;;25.30;38.60;;;;;;4881492;29;20499;-87
2022/03/29 12:49:37;;;;;;;22.65;15.88;;;24.70;39.90;;;;;;4897876;29;20061;-87
2022/03/29 12:52:08;;;;;;;22.80;15.30;;;23.60;39.60;;;;;;4880430;29;20056;-87
2022/03/29 12:54:40;;;;;;;24.20;16.40;;;22.50;41.80;;;;;;4897086;29;20119;-87
2022/03/29 12:57:10;;;;;;;27.40;16.52;;;21.80;43.40;;;;;;4865507;29;20055;-87
2022/03/29 12:59:41;;;;;;;26.73;15.20;;;21.60;44.60;;;;;;4865513;29;20063;-86
2022/03/29 13:02:19;;;;;;;24.30;15.35;;;21.60;44.90;;;;;;4865712;29;20060;-86
2022/03/29 13:04:57;;;;;;;24.48;15.25;;;21.90;45.30;;;;;;4865564;29;20392;-87
2022/03/29 13:07:45;;;;;;;25.17;16.35;;;22.30;44.80;;;;;;4881074;29;20454;-87
2022/03/29 13:10:18;;;;;;;24.05;16.42;;;22.50;44.40;;;;;;4865652;29;20083;-87
2022/03/29 13:13:03;;;;;;;26.00;16.40;;;22.30;44.30;;;;;;4880870;29;20060;-87